Time;durP1;ratioP1;P1;durP2;ratioP2;P2;SDS_P1;SDS_P2;PMS_P1;PMS_P2;Temp;Humidity;BMP_temperature;BMP_pressure;BME280_temperature;BME280_humidity;BME280_pressure;Samples;Min_cycle;Max_cycle;Signal;HPM_P1;HPM_P2
2022/02/14 00:01:07;;;;;;;12.13;7.93;;;10.10;96.70;;;;;;5065659;28;20044;-82
2022/02/14 00:03:35;;;;;;;8.73;6.88;;;10.10;96.70;;;;;;5064594;28;20519;-83
2022/02/14 00:06:03;;;;;;;12.18;7.15;;;10.10;96.70;;;;;;5083458;28;20047;-84
2022/02/14 00:08:34;;;;;;;9.45;6.65;;;10.10;96.70;;;;;;5081077;28;20118;-82
2022/02/14 00:11:02;;;;;;;11.50;7.10;;;10.10;96.70;;;;;;5080655;28;20534;-83
2022/02/14 00:13:30;;;;;;;13.88;7.38;;;10.10;96.70;;;;;;5063490;28;20082;-83
2022/02/14 00:16:00;;;;;;;10.45;7.50;;;10.10;96.70;;;;;;5067017;28;20044;-83
2022/02/14 00:18:28;;;;;;;9.40;6.97;;;10.10;96.70;;;;;;5079645;28;20129;-83
2022/02/14 00:20:56;;;;;;;11.57;6.95;;;10.00;96.70;;;;;;5065149;28;20048;-83
2022/02/14 00:23:24;;;;;;;13.73;8.40;;;10.10;96.70;;;;;;5082328;28;20331;-83
2022/02/14 00:25:54;;;;;;;10.13;8.00;;;10.10;96.70;;;;;;5078892;28;20283;-83
2022/02/14 00:28:24;;;;;;;11.02;7.57;;;10.10;96.70;;;;;;5080867;28;20044;-83
2022/02/14 00:30:52;;;;;;;10.98;7.63;;;10.10;96.70;;;;;;5093063;28;20064;-83
2022/02/14 00:33:21;;;;;;;10.07;7.10;;;10.00;96.70;;;;;;5082116;28;20067;-83
2022/02/14 00:35:49;;;;;;;11.18;6.53;;;10.00;96.70;;;;;;5080492;28;20036;-83
2022/02/14 00:38:20;;;;;;;9.40;5.95;;;10.00;96.70;;;;;;5080139;28;20154;-83
2022/02/14 00:40:48;;;;;;;7.10;5.47;;;10.10;96.70;;;;;;5081953;28;20040;-83
2022/02/14 00:43:17;;;;;;;9.77;5.93;;;10.00;96.70;;;;;;5079597;28;20055;-83
2022/02/14 00:45:46;;;;;;;9.68;5.95;;;9.90;96.70;;;;;;5065160;28;20598;-82
2022/02/14 00:48:15;;;;;;;9.38;6.43;;;9.90;96.70;;;;;;5082875;28;20213;-83
2022/02/14 00:50:43;;;;;;;8.95;5.75;;;9.90;96.70;;;;;;5065157;28;20093;-83
2022/02/14 00:53:12;;;;;;;7.13;4.90;;;9.90;96.70;;;;;;5081709;28;20048;-82
2022/02/14 00:55:40;;;;;;;6.90;5.32;;;9.90;96.70;;;;;;5079452;28;20036;-83
2022/02/14 00:58:09;;;;;;;8.55;6.10;;;9.90;96.70;;;;;;5079713;28;20071;-83
2022/02/14 01:00:39;;;;;;;6.07;4.82;;;9.90;96.70;;;;;;5081002;28;20047;-82
2022/02/14 01:03:08;;;;;;;6.65;4.88;;;9.90;96.70;;;;;;5063595;28;20036;-83
2022/02/14 01:05:37;;;;;;;7.43;5.38;;;9.90;96.70;;;;;;5082399;28;20040;-83
2022/02/14 01:08:05;;;;;;;7.57;4.78;;;9.90;96.70;;;;;;5081343;28;20044;-83
2022/02/14 01:10:34;;;;;;;9.45;5.45;;;9.90;96.70;;;;;;5079212;28;20075;-83
2022/02/14 01:13:03;;;;;;;6.05;4.72;;;9.90;96.70;;;;;;5062398;28;20138;-83
2022/02/14 01:15:31;;;;;;;9.23;5.07;;;9.90;96.70;;;;;;5079035;28;20135;-83
2022/02/14 01:18:02;;;;;;;7.38;5.28;;;9.90;96.70;;;;;;5079251;28;20311;-83
2022/02/14 01:20:30;;;;;;;6.82;4.88;;;10.00;96.70;;;;;;5079456;28;20048;-83
2022/02/14 01:22:59;;;;;;;7.07;5.18;;;10.00;96.70;;;;;;5078139;28;20036;-83
2022/02/14 01:25:27;;;;;;;8.32;5.50;;;9.90;96.70;;;;;;5081643;28;20115;-83
2022/02/14 01:27:56;;;;;;;10.63;5.72;;;9.80;96.70;;;;;;5077880;28;20051;-83
2022/02/14 01:30:24;;;;;;;7.18;5.78;;;9.90;96.70;;;;;;5080602;28;20040;-83
2022/02/14 01:32:53;;;;;;;7.18;5.10;;;9.80;96.70;;;;;;5080635;28;20043;-83
2022/02/14 01:35:23;;;;;;;6.53;5.47;;;9.90;96.70;;;;;;5080943;28;20044;-83
2022/02/14 01:37:52;;;;;;;8.02;5.38;;;9.90;96.70;;;;;;5081121;28;20047;-83
2022/02/14 01:40:21;;;;;;;9.63;5.63;;;9.90;96.70;;;;;;5083084;28;20043;-83
2022/02/14 01:42:50;;;;;;;7.15;5.75;;;10.00;96.70;;;;;;5064823;28;20436;-83
2022/02/14 01:45:18;;;;;;;8.27;5.80;;;9.90;96.70;;;;;;5079319;28;20300;-83
2022/02/14 01:47:47;;;;;;;8.68;6.20;;;9.90;96.70;;;;;;5081617;28;20485;-83
2022/02/14 01:50:16;;;;;;;8.35;6.60;;;10.00;96.70;;;;;;5071450;28;20477;-83
2022/02/14 01:52:47;;;;;;;9.82;7.35;;;10.00;96.70;;;;;;5078363;28;20225;-83
2022/02/14 01:55:16;;;;;;;7.63;6.25;;;10.00;96.70;;;;;;5075908;28;20518;-83
2022/02/14 01:57:44;;;;;;;9.63;7.25;;;10.00;96.70;;;;;;5082721;28;20134;-86
2022/02/14 02:00:16;;;;;;;10.27;8.07;;;10.00;96.70;;;;;;5080489;28;20047;-83
2022/02/14 02:02:45;;;;;;;10.35;7.07;;;10.00;96.70;;;;;;5079588;28;20054;-83
2022/02/14 02:05:13;;;;;;;8.77;7.18;;;10.00;96.70;;;;;;5080524;28;20063;-83
2022/02/14 02:07:42;;;;;;;9.82;7.53;;;10.00;96.70;;;;;;5082165;28;20119;-83
2022/02/14 02:10:16;;;;;;;9.05;7.47;;;9.90;96.70;;;;;;5080014;28;20052;-82
2022/02/14 02:12:52;;;;;;;11.00;7.65;;;9.90;96.70;;;;;;5064112;28;20090;-83
2022/02/14 02:15:22;;;;;;;9.40;7.20;;;9.90;96.70;;;;;;5080257;28;20040;-83
2022/02/14 02:17:50;;;;;;;11.00;7.90;;;9.90;96.70;;;;;;5064750;28;20457;-83
2022/02/14 02:20:20;;;;;;;9.90;8.10;;;9.90;96.70;;;;;;5078263;28;20036;-83
2022/02/14 02:22:50;;;;;;;9.68;8.38;;;9.90;96.70;;;;;;5080886;28;20044;-83
2022/02/14 02:25:20;;;;;;;9.23;6.95;;;9.80;96.70;;;;;;5080443;28;20528;-83
2022/02/14 02:27:49;;;;;;;12.57;8.27;;;9.80;96.70;;;;;;5078925;28;20127;-83
2022/02/14 02:30:22;;;;;;;9.50;7.20;;;9.80;96.70;;;;;;5080014;28;20076;-83
2022/02/14 02:32:51;;;;;;;9.82;7.15;;;9.70;96.70;;;;;;5080466;28;20051;-83
2022/02/14 02:35:20;;;;;;;10.05;6.95;;;9.60;96.70;;;;;;5062985;28;20055;-83
2022/02/14 02:37:49;;;;;;;9.15;7.45;;;9.60;96.70;;;;;;5084604;28;20056;-83
2022/02/14 02:40:18;;;;;;;10.55;7.00;;;9.60;96.70;;;;;;5067894;28;20048;-83
2022/02/14 02:42:48;;;;;;;9.50;7.97;;;9.60;96.70;;;;;;5084453;28;20073;-83
2022/02/14 02:45:16;;;;;;;10.63;9.07;;;9.60;96.70;;;;;;5084088;28;20059;-83
2022/02/14 02:47:45;;;;;;;9.95;7.72;;;9.50;96.70;;;;;;5061866;28;20036;-83
2022/02/14 02:50:14;;;;;;;9.50;7.13;;;9.50;96.70;;;;;;5065484;28;20387;-83
2022/02/14 02:52:42;;;;;;;8.20;7.13;;;9.50;96.70;;;;;;5084296;28;20486;-83
2022/02/14 02:55:11;;;;;;;10.20;7.43;;;9.50;96.70;;;;;;5076638;28;20060;-83
2022/02/14 02:57:40;;;;;;;9.30;7.10;;;9.60;96.70;;;;;;5082045;28;20164;-83
2022/02/14 03:00:11;;;;;;;12.43;7.93;;;9.60;96.70;;;;;;5083054;28;20039;-84
2022/02/14 03:02:39;;;;;;;10.77;8.00;;;9.60;96.70;;;;;;5070070;28;20044;-84
2022/02/14 03:05:08;;;;;;;9.60;7.78;;;9.60;96.70;;;;;;5084624;28;20048;-84
2022/02/14 03:07:37;;;;;;;12.90;7.63;;;9.60;96.70;;;;;;5083166;28;20052;-84
2022/02/14 03:10:07;;;;;;;10.23;8.68;;;9.50;96.70;;;;;;5065713;28;20036;-85
2022/02/14 03:12:35;;;;;;;12.48;8.43;;;9.50;96.70;;;;;;5065660;28;20036;-85
2022/02/14 03:15:05;;;;;;;10.10;8.43;;;9.50;96.70;;;;;;5083916;28;20040;-85
2022/02/14 03:17:35;;;;;;;10.02;8.40;;;9.50;96.70;;;;;;5082366;28;20075;-84
2022/02/14 03:20:06;;;;;;;11.32;8.48;;;9.50;96.70;;;;;;5085343;28;20051;-88
2022/02/14 03:22:35;;;;;;;11.18;8.85;;;9.50;96.70;;;;;;5087020;28;20040;-86
2022/02/14 03:25:06;;;;;;;9.90;8.38;;;9.40;96.70;;;;;;5085264;28;20093;-85
2022/02/14 03:27:35;;;;;;;10.43;8.38;;;9.40;96.70;;;;;;5080726;28;20954;-86
2022/02/14 03:30:04;;;;;;;10.40;8.90;;;9.30;96.70;;;;;;5062874;28;20036;-85
2022/02/14 03:32:34;;;;;;;11.05;8.50;;;9.40;96.70;;;;;;5065320;28;20036;-85
2022/02/14 03:35:03;;;;;;;10.68;8.52;;;9.40;96.70;;;;;;5084424;28;20040;-85
2022/02/14 03:37:32;;;;;;;12.10;10.15;;;9.40;96.70;;;;;;5082465;28;20040;-85
2022/02/14 03:40:00;;;;;;;9.73;8.13;;;9.40;96.70;;;;;;5085294;28;20490;-85
2022/02/14 03:42:29;;;;;;;10.25;9.00;;;9.50;96.70;;;;;;5083613;28;20035;-85
2022/02/14 03:44:58;;;;;;;8.98;7.95;;;9.50;96.70;;;;;;5082777;28;20067;-85
2022/02/14 03:47:26;;;;;;;8.73;7.82;;;9.50;96.70;;;;;;5079550;28;20048;-85
2022/02/14 03:49:59;;;;;;;12.63;8.40;;;9.50;96.70;;;;;;5082338;28;20043;-85
2022/02/14 03:52:27;;;;;;;8.40;7.07;;;9.50;96.70;;;;;;5082837;28;20509;-85
2022/02/14 03:54:56;;;;;;;10.05;8.15;;;9.60;96.70;;;;;;5067794;28;20139;-85
2022/02/14 03:57:24;;;;;;;9.40;7.47;;;9.60;96.70;;;;;;5077863;28;20497;-85
2022/02/14 03:59:53;;;;;;;9.18;7.50;;;9.60;96.70;;;;;;5084154;28;20133;-85
2022/02/14 04:02:21;;;;;;;10.27;7.32;;;9.60;96.70;;;;;;5060895;28;20043;-85
2022/02/14 04:04:50;;;;;;;9.43;7.78;;;9.60;96.70;;;;;;5083620;28;20151;-85
2022/02/14 04:07:20;;;;;;;8.77;7.63;;;9.50;96.70;;;;;;5092303;28;20512;-85
2022/02/14 04:09:49;;;;;;;9.43;8.10;;;9.40;96.70;;;;;;5084789;28;20033;-85
2022/02/14 04:12:18;;;;;;;10.07;7.47;;;9.30;96.70;;;;;;5084192;28;20044;-84
2022/02/14 04:14:46;;;;;;;8.63;7.07;;;9.40;96.70;;;;;;5080533;28;20431;-85
2022/02/14 04:17:15;;;;;;;9.30;7.40;;;9.40;96.70;;;;;;5081152;28;20047;-85
2022/02/14 04:19:44;;;;;;;8.63;7.05;;;9.40;96.70;;;;;;5083154;28;20054;-85
2022/02/14 04:22:12;;;;;;;8.82;6.43;;;9.40;96.70;;;;;;5083503;28;20044;-85
2022/02/14 04:24:42;;;;;;;7.60;6.80;;;9.30;96.70;;;;;;5083004;28;20035;-85
2022/02/14 04:27:11;;;;;;;8.85;5.97;;;9.30;96.70;;;;;;5078549;28;20045;-84
2022/02/14 04:29:40;;;;;;;7.38;6.20;;;9.30;96.70;;;;;;5083316;28;20036;-85
2022/02/14 04:32:09;;;;;;;9.45;6.30;;;9.30;96.70;;;;;;5064311;28;20043;-89
2022/02/14 04:34:37;;;;;;;7.60;6.68;;;9.30;96.70;;;;;;5081677;28;20509;-89
2022/02/14 04:37:06;;;;;;;8.80;6.65;;;9.30;96.70;;;;;;5082430;28;20044;-88
2022/02/14 04:39:34;;;;;;;7.07;5.85;;;9.40;96.70;;;;;;5083641;28;20105;-89
2022/02/14 04:42:05;;;;;;;7.40;6.22;;;9.50;96.70;;;;;;5082150;28;20052;-89
2022/02/14 04:44:34;;;;;;;8.30;6.68;;;9.50;96.70;;;;;;5080827;28;20367;-90
2022/02/14 04:47:03;;;;;;;11.02;7.28;;;9.60;96.70;;;;;;5084714;28;20036;-89
2022/02/14 04:49:31;;;;;;;8.93;6.68;;;9.50;96.70;;;;;;5084418;28;20040;-89
2022/02/14 04:51:59;;;;;;;8.05;6.28;;;9.40;96.70;;;;;;5082419;28;20115;-90
2022/02/14 04:54:27;;;;;;;8.23;6.47;;;9.40;96.70;;;;;;5040223;28;20037;-90
2022/02/14 04:56:56;;;;;;;8.40;6.35;;;9.50;96.70;;;;;;5043283;28;20049;-89
2022/02/14 04:59:25;;;;;;;8.43;6.25;;;9.60;96.70;;;;;;5025049;28;20088;-89
2022/02/14 05:01:54;;;;;;;8.63;6.20;;;9.50;96.70;;;;;;5043540;28;20159;-89
2022/02/14 05:04:22;;;;;;;10.35;6.88;;;9.40;96.70;;;;;;5041749;28;20041;-89
2022/02/14 05:06:50;;;;;;;8.25;6.85;;;9.50;96.70;;;;;;5042861;28;20095;-89
2022/02/14 05:09:19;;;;;;;7.68;6.32;;;9.60;96.70;;;;;;5041128;28;20045;-89
2022/02/14 05:11:47;;;;;;;9.07;6.80;;;9.60;96.70;;;;;;5041636;28;20052;-88
2022/02/14 05:14:15;;;;;;;7.95;6.68;;;9.60;96.70;;;;;;5039846;28;20087;-88
2022/02/14 05:16:45;;;;;;;8.05;6.38;;;9.60;96.70;;;;;;5042842;28;20572;-88
2022/02/14 05:19:13;;;;;;;8.48;6.82;;;9.60;96.70;;;;;;5041797;28;20574;-90
2022/02/14 05:21:41;;;;;;;8.20;7.25;;;9.60;96.70;;;;;;5039881;28;20655;-89
2022/02/14 05:24:09;;;;;;;8.25;6.25;;;9.60;96.70;;;;;;5026840;28;20107;-90
2022/02/14 05:26:37;;;;;;;8.15;6.43;;;9.60;96.70;;;;;;5040771;28;20099;-90
2022/02/14 05:29:06;;;;;;;8.38;6.07;;;9.60;96.70;;;;;;5041470;28;20041;-90
2022/02/14 05:31:34;;;;;;;7.63;6.40;;;9.60;96.70;;;;;;5025457;28;20033;-90
2022/02/14 05:34:04;;;;;;;7.82;6.40;;;9.60;96.70;;;;;;5042794;28;20112;-89
2022/02/14 05:36:32;;;;;;;8.18;5.65;;;9.50;96.70;;;;;;5043083;28;20048;-90
2022/02/14 05:39:00;;;;;;;9.18;6.20;;;9.50;96.70;;;;;;5043530;28;20172;-89
2022/02/14 05:41:29;;;;;;;7.88;6.65;;;9.50;96.70;;;;;;5027330;28;20055;-89
2022/02/14 05:44:01;;;;;;;7.85;6.32;;;9.50;96.70;;;;;;5025001;28;20064;-89
2022/02/14 05:46:29;;;;;;;8.63;6.53;;;9.40;96.70;;;;;;5039900;28;20068;-89
2022/02/14 05:48:58;;;;;;;9.50;6.95;;;9.40;96.70;;;;;;5040243;28;20044;-89
2022/02/14 05:51:27;;;;;;;8.18;6.20;;;9.40;96.70;;;;;;5040910;28;20036;-89
2022/02/14 05:53:55;;;;;;;8.68;7.13;;;9.50;96.70;;;;;;5054334;28;20423;-88
2022/02/14 05:56:24;;;;;;;7.55;6.68;;;9.40;96.70;;;;;;5064892;28;20044;-88
2022/02/14 05:58:52;;;;;;;9.95;5.97;;;9.40;96.70;;;;;;5079793;28;20051;-89
2022/02/14 06:01:21;;;;;;;7.85;6.32;;;9.40;96.70;;;;;;5081615;28;20056;-89
2022/02/14 06:03:49;;;;;;;8.43;6.75;;;9.50;96.70;;;;;;5083018;28;20506;-89
2022/02/14 06:06:17;;;;;;;7.70;6.32;;;9.50;96.70;;;;;;5081969;28;20055;-88
2022/02/14 06:08:47;;;;;;;8.48;7.13;;;9.50;96.70;;;;;;5085654;28;20062;-88
2022/02/14 06:11:15;;;;;;;8.00;6.88;;;9.40;96.70;;;;;;5070550;28;20066;-89
2022/02/14 06:13:43;;;;;;;8.50;6.88;;;9.40;96.70;;;;;;5089592;28;20048;-89
2022/02/14 06:16:11;;;;;;;8.13;6.32;;;9.40;96.70;;;;;;5089042;28;20074;-88
2022/02/14 06:18:39;;;;;;;9.25;6.97;;;9.40;96.70;;;;;;5088104;28;20048;-89
2022/02/14 06:21:07;;;;;;;8.45;6.70;;;9.40;96.70;;;;;;5092137;28;20079;-89
2022/02/14 06:23:36;;;;;;;8.65;7.43;;;9.40;96.70;;;;;;5089930;28;20064;-89
2022/02/14 06:26:06;;;;;;;10.30;7.63;;;9.40;96.70;;;;;;5081408;28;20111;-89
2022/02/14 06:28:38;;;;;;;8.15;6.95;;;9.40;96.70;;;;;;5100485;28;20047;-87
2022/02/14 06:31:07;;;;;;;8.63;6.75;;;9.40;96.70;;;;;;5100948;28;20054;-88
2022/02/14 06:33:39;;;;;;;8.57;6.68;;;9.40;96.70;;;;;;5101683;28;20377;-88
2022/02/14 06:36:07;;;;;;;8.40;7.13;;;9.40;96.70;;;;;;5075828;28;20087;-88
2022/02/14 06:38:37;;;;;;;8.82;7.22;;;9.40;96.70;;;;;;5081580;28;20118;-89
2022/02/14 06:41:06;;;;;;;8.95;7.05;;;9.40;96.70;;;;;;5085488;28;20036;-88
2022/02/14 06:43:35;;;;;;;9.02;7.30;;;9.40;96.70;;;;;;5084630;28;20045;-87
2022/02/14 06:46:04;;;;;;;7.05;6.13;;;9.40;96.70;;;;;;5099005;28;20040;-88
2022/02/14 06:48:32;;;;;;;8.00;6.30;;;9.50;96.70;;;;;;5085299;28;20032;-88
2022/02/14 06:51:00;;;;;;;7.88;6.38;;;9.50;96.70;;;;;;5084193;28;20843;-88
2022/02/14 06:53:29;;;;;;;7.72;6.40;;;9.50;96.70;;;;;;5083781;28;20063;-86
2022/02/14 06:56:00;;;;;;;10.93;6.72;;;9.50;96.70;;;;;;5082307;28;20052;-87
2022/02/14 06:58:29;;;;;;;42.67;24.33;;;9.50;96.70;;;;;;5083794;28;20521;-88
2022/02/14 07:00:57;;;;;;;62.65;33.40;;;9.50;96.70;;;;;;5085628;28;20107;-89
2022/02/14 07:03:26;;;;;;;124.53;63.38;;;9.50;96.70;;;;;;5067648;28;20036;-89
2022/02/14 07:05:54;;;;;;;207.50;104.13;;;9.60;96.70;;;;;;5086673;28;20043;-88
2022/02/14 07:08:23;;;;;;;215.82;108.35;;;9.50;96.70;;;;;;5084693;28;20047;-88
2022/02/14 07:10:51;;;;;;;325.92;154.95;;;9.50;96.70;;;;;;5068076;28;20070;-88
2022/02/14 07:13:19;;;;;;;177.38;92.43;;;9.50;96.70;;;;;;5082052;28;20823;-88
2022/02/14 07:15:49;;;;;;;101.65;50.47;;;9.50;96.70;;;;;;5077384;28;20627;-88
2022/02/14 07:18:17;;;;;;;87.90;45.22;;;9.50;96.70;;;;;;5063447;28;20067;-88
2022/02/14 07:20:46;;;;;;;58.83;32.63;;;9.60;96.70;;;;;;5080022;28;20777;-88
2022/02/14 07:23:14;;;;;;;32.05;20.02;;;9.60;96.70;;;;;;5086014;28;20509;-88
2022/02/14 07:25:44;;;;;;;24.90;14.55;;;9.60;96.70;;;;;;5085653;28;20163;-88
2022/02/14 07:28:12;;;;;;;22.67;13.95;;;9.60;96.70;;;;;;5066644;28;20131;-89
2022/02/14 07:30:41;;;;;;;23.75;14.38;;;9.60;96.70;;;;;;5083634;28;20398;-89
2022/02/14 07:33:12;;;;;;;16.50;10.70;;;9.70;96.70;;;;;;5068547;28;20214;-88
2022/02/14 07:35:40;;;;;;;17.98;11.63;;;9.70;96.70;;;;;;5084731;28;20040;-89
2022/02/14 07:38:09;;;;;;;13.25;9.18;;;9.70;96.70;;;;;;5083407;28;20647;-89
2022/02/14 07:40:37;;;;;;;12.07;9.13;;;9.70;96.70;;;;;;5084753;28;20421;-89
2022/02/14 07:43:05;;;;;;;11.43;7.88;;;9.80;96.70;;;;;;5083269;28;21060;-87
2022/02/14 07:45:33;;;;;;;10.73;7.65;;;9.80;96.70;;;;;;5067803;28;20180;-89
2022/02/14 07:48:02;;;;;;;12.13;7.95;;;9.90;96.70;;;;;;5084635;28;20473;-89
2022/02/14 07:50:31;;;;;;;26.25;15.43;;;9.90;96.70;;;;;;5082682;28;20125;-88
2022/02/14 07:53:01;;;;;;;37.00;21.05;;;9.90;96.70;;;;;;5066497;28;20507;-88
2022/02/14 07:55:29;;;;;;;34.85;20.52;;;10.00;96.70;;;;;;5083329;28;20043;-88
2022/02/14 07:57:57;;;;;;;30.48;17.88;;;10.00;96.70;;;;;;5081958;28;20066;-88
2022/02/14 08:00:25;;;;;;;25.63;16.05;;;10.00;96.70;;;;;;5084647;28;20039;-88
2022/02/14 08:02:53;;;;;;;22.17;13.57;;;10.00;96.70;;;;;;5082542;28;20045;-87
2022/02/14 08:05:22;;;;;;;19.40;12.45;;;10.00;96.70;;;;;;5078159;28;20063;-89
2022/02/14 08:07:51;;;;;;;20.10;11.38;;;10.10;96.70;;;;;;5083889;28;20041;-89
2022/02/14 08:10:40;;;;;;;14.65;10.27;;;10.00;96.70;;;;;;5077144;28;20042;-87
2022/02/14 08:13:08;;;;;;;12.57;9.18;;;10.10;96.70;;;;;;5085290;28;20124;-88
2022/02/14 08:15:36;;;;;;;11.98;8.23;;;10.10;96.70;;;;;;5069033;28;20151;-89
2022/02/14 08:18:07;;;;;;;11.25;7.72;;;10.10;96.70;;;;;;5067673;28;20529;-88
2022/02/14 08:20:36;;;;;;;9.20;7.88;;;10.10;96.70;;;;;;5082505;28;20071;-88
2022/02/14 08:23:07;;;;;;;10.55;7.32;;;10.10;96.70;;;;;;5082542;28;20032;-88
2022/02/14 08:25:36;;;;;;;8.30;7.13;;;10.20;96.70;;;;;;5055604;28;20117;-89
2022/02/14 08:28:04;;;;;;;7.57;6.50;;;10.20;96.70;;;;;;5081293;28;20040;-88
2022/02/14 08:30:34;;;;;;;8.55;6.95;;;10.20;96.70;;;;;;5079492;28;20409;-88
2022/02/14 08:33:05;;;;;;;7.22;6.43;;;10.20;96.70;;;;;;5082903;28;20060;-88
2022/02/14 08:35:34;;;;;;;8.80;6.13;;;10.20;96.70;;;;;;5082335;28;20048;-83
2022/02/14 08:38:02;;;;;;;10.45;7.22;;;10.20;96.70;;;;;;5081601;28;20040;-83
2022/02/14 08:40:32;;;;;;;6.78;6.07;;;10.30;96.70;;;;;;5083112;28;20130;-82
2022/02/14 08:43:01;;;;;;;7.93;6.30;;;10.30;96.70;;;;;;5080556;28;20093;-86
2022/02/14 08:45:47;;;;;;;8.45;7.03;;;10.30;96.70;;;;;;5083038;28;20150;-84
2022/02/14 08:48:17;;;;;;;8.75;6.97;;;10.40;96.70;;;;;;5066071;28;20506;-86
2022/02/14 08:50:45;;;;;;;9.68;7.20;;;10.40;96.70;;;;;;5082886;28;20055;-85
2022/02/14 08:53:14;;;;;;;8.38;6.95;;;10.40;96.70;;;;;;5066031;28;20047;-87
2022/02/14 08:55:43;;;;;;;10.63;7.53;;;10.40;96.70;;;;;;5079625;28;20481;-88
2022/02/14 08:58:12;;;;;;;9.48;7.70;;;10.40;96.70;;;;;;5081865;28;20051;-87
2022/02/14 09:00:40;;;;;;;8.55;7.28;;;10.40;96.70;;;;;;5080341;28;20040;-85
2022/02/14 09:03:08;;;;;;;11.02;7.10;;;10.40;96.70;;;;;;5084435;28;20040;-83
2022/02/14 09:05:36;;;;;;;9.75;7.75;;;10.40;96.70;;;;;;5080125;28;20032;-83
2022/02/14 09:08:05;;;;;;;9.90;7.82;;;10.40;96.70;;;;;;5079373;28;20056;-84
2022/02/14 09:10:35;;;;;;;9.95;7.90;;;10.40;96.70;;;;;;5066630;28;20035;-84
2022/02/14 09:13:05;;;;;;;8.65;7.63;;;10.40;96.70;;;;;;5097524;28;20051;-82
2022/02/14 09:15:37;;;;;;;10.55;7.72;;;10.40;96.70;;;;;;5079069;28;20036;-83
2022/02/14 09:18:06;;;;;;;12.57;7.40;;;10.40;96.70;;;;;;5078835;28;20484;-81
2022/02/14 09:20:35;;;;;;;11.15;7.32;;;10.30;96.70;;;;;;5081554;28;20063;-80
2022/02/14 09:23:03;;;;;;;13.10;8.05;;;10.30;96.70;;;;;;5078406;28;20044;-81
2022/02/14 09:25:32;;;;;;;12.60;8.23;;;10.40;96.70;;;;;;5063339;28;20051;-81
2022/02/14 09:28:01;;;;;;;10.85;8.25;;;10.40;96.70;;;;;;5062640;28;20040;-81
2022/02/14 09:30:31;;;;;;;12.90;9.05;;;10.40;96.70;;;;;;5078372;28;20157;-82
2022/02/14 09:33:00;;;;;;;13.10;8.90;;;10.40;96.70;;;;;;5080352;28;20046;-82
2022/02/14 09:35:28;;;;;;;11.85;9.40;;;10.40;96.70;;;;;;5078942;28;20445;-82
2022/02/14 09:37:58;;;;;;;13.45;10.05;;;10.40;96.70;;;;;;5082254;28;20039;-80
2022/02/14 09:40:27;;;;;;;13.13;9.52;;;10.40;96.70;;;;;;5080697;28;20089;-81
2022/02/14 09:43:11;;;;;;;13.43;10.48;;;10.50;96.70;;;;;;5077895;28;20139;-82
2022/02/14 09:45:42;;;;;;;13.35;10.63;;;10.60;96.70;;;;;;5063384;28;20042;-82
2022/02/14 09:48:11;;;;;;;12.13;10.55;;;10.80;96.70;;;;;;5078739;28;20541;-82
2022/02/14 09:50:41;;;;;;;14.57;10.90;;;10.90;96.70;;;;;;5081566;28;20206;-82
2022/02/14 09:53:11;;;;;;;13.05;10.77;;;11.00;96.70;;;;;;5079630;28;20048;-82
2022/02/14 09:55:47;;;;;;;19.67;10.87;;;11.20;96.70;;;;;;5080650;28;20101;-82
2022/02/14 09:58:16;;;;;;;15.13;11.57;;;11.30;96.70;;;;;;5093339;28;20448;-83
2022/02/14 10:00:46;;;;;;;14.70;12.25;;;11.30;96.70;;;;;;5077236;28;20537;-83
2022/02/14 10:03:16;;;;;;;13.77;11.88;;;11.30;96.70;;;;;;5079609;28;20052;-82
2022/02/14 10:05:47;;;;;;;14.95;12.23;;;11.20;96.70;;;;;;5065334;28;20044;-82
2022/02/14 10:08:20;;;;;;;14.43;12.15;;;11.10;96.70;;;;;;5079496;28;20086;-82
2022/02/14 10:10:51;;;;;;;16.45;13.77;;;11.10;96.70;;;;;;5063229;28;20107;-82
2022/02/14 10:13:33;;;;;;;16.27;13.75;;;11.10;96.70;;;;;;5079953;28;20044;-83
2022/02/14 10:16:08;;;;;;;15.32;12.50;;;10.90;96.70;;;;;;5079381;28;20044;-84
2022/02/14 10:18:39;;;;;;;16.50;12.80;;;10.90;96.70;;;;;;5058070;28;20044;-81
2022/02/14 10:21:21;;;;;;;15.75;12.07;;;10.90;96.70;;;;;;5074979;28;20139;-82
2022/02/14 10:24:05;;;;;;;15.10;11.93;;;10.90;96.70;;;;;;5081325;28;20588;-82
2022/02/14 10:26:35;;;;;;;15.07;12.13;;;10.80;96.70;;;;;;5061803;28;20209;-82
2022/02/14 10:29:17;;;;;;;14.40;11.90;;;10.80;96.70;;;;;;5079984;28;20089;-81
2022/02/14 10:31:48;;;;;;;13.55;11.60;;;10.70;96.70;;;;;;5080490;28;20048;-84
2022/02/14 10:34:18;;;;;;;14.13;12.18;;;10.70;96.70;;;;;;5081736;28;20050;-83
2022/02/14 10:36:48;;;;;;;14.45;12.30;;;10.70;96.70;;;;;;5079176;28;20517;-83
2022/02/14 10:39:20;;;;;;;14.30;11.85;;;10.60;96.70;;;;;;5081213;28;20044;-83
2022/02/14 10:41:50;;;;;;;13.73;11.25;;;10.70;96.70;;;;;;5078591;28;20036;-82
2022/02/14 10:47:13;;;;;;;13.95;10.15;;;10.80;96.70;;;;;;5077785;28;20044;-83
2022/02/14 10:49:42;;;;;;;15.07;10.90;;;10.80;96.70;;;;;;5080110;28;20041;-83
2022/02/14 10:52:12;;;;;;;17.13;11.32;;;10.70;96.70;;;;;;5081107;28;20140;-83
2022/02/14 10:54:42;;;;;;;13.90;11.20;;;10.70;96.70;;;;;;5074695;28;20133;-83
2022/02/14 10:57:26;;;;;;;12.43;10.48;;;10.70;96.70;;;;;;5081222;28;20117;-83
2022/02/14 10:59:59;;;;;;;12.68;10.80;;;10.60;96.70;;;;;;5058698;28;20036;-83
2022/02/14 11:02:29;;;;;;;13.20;11.52;;;10.60;96.70;;;;;;5082916;28;20037;-83
2022/02/14 11:04:58;;;;;;;18.88;13.18;;;10.60;96.70;;;;;;5082550;28;20052;-83
2022/02/14 11:07:29;;;;;;;16.90;13.57;;;10.60;96.70;;;;;;5084650;28;20457;-83
2022/02/14 11:09:58;;;;;;;16.27;13.50;;;10.60;96.70;;;;;;5079395;28;20218;-83
2022/02/14 11:12:30;;;;;;;16.35;13.52;;;10.60;96.70;;;;;;5067684;28;20136;-83
2022/02/14 11:15:01;;;;;;;13.85;11.80;;;10.60;96.70;;;;;;5079606;28;20118;-82
2022/02/14 11:17:34;;;;;;;15.52;12.73;;;10.70;96.70;;;;;;5085156;28;20044;-83
2022/02/14 11:20:04;;;;;;;16.15;12.15;;;10.70;96.70;;;;;;5072106;28;20073;-83
2022/02/14 11:22:35;;;;;;;14.90;11.63;;;10.70;96.70;;;;;;5085360;28;20050;-83
2022/02/14 11:25:17;;;;;;;13.93;11.65;;;10.80;96.70;;;;;;5084257;28;20146;-83
2022/02/14 11:27:54;;;;;;;15.93;12.25;;;10.90;96.70;;;;;;5082294;28;20051;-83
2022/02/14 11:30:25;;;;;;;13.23;11.77;;;10.90;96.70;;;;;;5081223;28;20109;-82
2022/02/14 11:33:06;;;;;;;13.45;11.65;;;11.00;96.70;;;;;;5066267;28;20179;-82
2022/02/14 11:35:35;;;;;;;13.45;11.93;;;11.10;96.70;;;;;;5082454;28;20099;-83
2022/02/14 11:38:05;;;;;;;14.65;12.70;;;11.20;96.70;;;;;;5079310;28;20413;-83
2022/02/14 11:40:37;;;;;;;13.38;11.35;;;11.20;96.70;;;;;;5078845;28;20052;-83
2022/02/14 11:43:11;;;;;;;13.73;11.23;;;11.20;96.70;;;;;;5081736;28;20047;-82
2022/02/14 11:45:40;;;;;;;12.50;10.63;;;11.20;96.70;;;;;;5066742;28;20059;-82
2022/02/14 11:48:24;;;;;;;11.80;10.45;;;11.30;96.70;;;;;;5082858;28;20033;-82
2022/02/14 11:51:07;;;;;;;12.38;11.07;;;11.20;96.70;;;;;;5083963;28;20040;-83
2022/02/14 11:53:39;;;;;;;11.50;10.30;;;11.10;96.70;;;;;;5083125;28;20101;-82
2022/02/14 11:56:27;;;;;;;11.30;10.20;;;11.10;96.70;;;;;;5080601;28;20040;-82
2022/02/14 11:59:10;;;;;;;11.90;10.23;;;11.00;96.70;;;;;;5066230;28;20032;-82
2022/02/14 12:02:01;;;;;;;11.05;9.88;;;11.00;96.70;;;;;;5080182;28;20036;-83
2022/02/14 12:04:42;;;;;;;10.82;9.73;;;11.00;96.70;;;;;;5062357;28;20055;-82
2022/02/14 12:07:32;;;;;;;12.30;10.02;;;11.10;96.70;;;;;;5082101;28;20076;-82
2022/02/14 12:10:19;;;;;;;10.55;9.40;;;11.20;96.70;;;;;;5078708;28;20044;-82
2022/02/14 12:13:10;;;;;;;11.00;9.90;;;11.30;96.70;;;;;;5079544;28;20044;-82
2022/02/14 12:21:18;;;;;;;10.77;9.68;;;11.20;96.70;;;;;;5095081;28;20078;-82
2022/02/14 12:24:16;;;;;;;10.35;9.25;;;11.10;96.70;;;;;;5081029;28;20036;-82
2022/02/14 12:26:59;;;;;;;11.65;9.15;;;11.00;96.70;;;;;;5082473;28;20612;-82
2022/02/14 12:29:32;;;;;;;11.23;9.98;;;10.90;96.70;;;;;;5081550;28;20040;-81
2022/02/14 12:32:14;;;;;;;11.48;9.65;;;10.90;96.70;;;;;;5080958;28;20059;-82
2022/02/14 12:34:44;;;;;;;14.70;9.57;;;10.90;96.70;;;;;;5081560;28;20054;-82
2022/02/14 12:37:16;;;;;;;13.45;10.10;;;10.90;96.70;;;;;;5066242;28;20055;-83
2022/02/14 12:39:47;;;;;;;10.65;9.55;;;10.90;96.70;;;;;;5082371;28;20039;-83
2022/02/14 12:42:19;;;;;;;10.60;8.85;;;10.90;96.70;;;;;;5063522;28;20555;-83
2022/02/14 12:44:52;;;;;;;10.77;9.45;;;10.90;96.70;;;;;;5079886;28;20495;-83
2022/02/14 12:47:23;;;;;;;10.23;9.05;;;10.90;96.70;;;;;;5082505;28;20089;-82
2022/02/14 12:50:03;;;;;;;10.77;9.60;;;10.90;96.70;;;;;;5066927;28;20066;-83
2022/02/14 12:52:34;;;;;;;9.52;8.45;;;10.90;96.70;;;;;;5076101;28;20452;-83
2022/02/14 12:55:03;;;;;;;9.93;8.60;;;10.80;96.70;;;;;;5083173;28;20573;-82
2022/02/14 12:57:34;;;;;;;8.60;7.70;;;10.80;96.70;;;;;;5081869;28;20094;-83
2022/02/14 13:00:04;;;;;;;9.35;8.23;;;10.90;96.70;;;;;;5081340;28;20097;-83
2022/02/14 13:02:32;;;;;;;12.20;10.20;;;11.00;96.70;;;;;;5080791;28;20946;-82
2022/02/14 13:05:08;;;;;;;9.57;8.57;;;11.10;96.70;;;;;;5081338;28;20129;-82
2022/02/14 13:07:38;;;;;;;11.38;9.68;;;11.10;96.70;;;;;;5082195;28;20047;-82